• Join FlightAware (Why Join?)
  • Login
  • US Flag 
07:46AM EST


 

Airport Tracker/Info


-or-


 

Live Flight TrackerFlight Track Log ✈ FLG3435 ✈ 26-Aug-2013 ✈ KMSP - KPSC

Flight Track Log - Related Links

Times and Time Zones

All times are in EDT time to prevent confusion due to time zone crossing. See the FLG3435 flight status page for this flight to view local times or setup timezone preferences in your user account.

Time Position Orientation Groundspeed Altitude Reporting Facility
EDT Latitude Longitude Course Direction KTS MPH feet Rate Location/Type
11:18PM 44.8833 -93.1833 284° West 161 185 1,600  Level Minneapolis TRACON
11:19PM 44.8833 -93.1167 90° East 214 246 2,700 1,320 Climbing Minneapolis TRACON
11:20PM 44.9167 -93.0167 65° Northeast 298 343 4,200 1,980 Climbing Minneapolis TRACON
11:22PM 45.0086 -93.0128 North 281 323 7,600 2,340 Climbing Minneapolis Center
11:23PM 45.0322 -93.1117 289° West 279 321 9,800 1,860 Climbing Minneapolis Center
11:24PM 45.0043 -93.9499 284° West  Level Estimated
11:24PM 45.0386 -93.2281 274° West 301 346 11,500  Level Minneapolis Center
11:25PM 45.0442 -93.3594 273° West 339 390 13,000 1,860 Climbing Minneapolis Center
11:26PM 45.0503 -93.4967 274° West 351 404 15,400 2,400 Climbing Minneapolis Center
11:27PM 45.0569 -93.6600 273° West 350 403 17,900 1,860 Climbing Minneapolis Center
11:28PM 45.0611 -93.7967 273° West 350 403 19,300 1,380 Climbing Minneapolis Center
11:29PM 45.0678 -93.9394 274° West 361 415 20,800 1,320 Climbing Minneapolis Center
11:30PM 45.0753 -94.0825 274° West 366 421 22,100 1,200 Climbing Minneapolis Center
11:31PM 45.0806 -94.2306 273° West 374 430 23,300 1,260 Climbing Minneapolis Center
11:32PM 45.0858 -94.3817 273° West 382 440 24,700 1,200 Climbing Minneapolis Center
11:33PM 45.0992 -94.5633 276° West 386 444 26,000 1,020 Climbing Minneapolis Center
11:34PM 45.1167 -94.7303 279° West 395 455 27,100 1,020 Climbing Minneapolis Center
11:35PM 45.1322 -94.8869 278° West 401 461 28,100 840 Climbing Minneapolis Center
11:36PM 45.1469 -95.0456 278° West 407 468 28,900 780 Climbing Minneapolis Center
11:37PM 45.1631 -95.2056 278° West 411 473 29,800 780 Climbing Minneapolis Center
11:38PM 45.1775 -95.3683 277° West 416 479 30,600 720 Climbing Minneapolis Center
11:39PM 45.1933 -95.5325 278° West 421 484 31,300 1,020 Climbing Minneapolis Center
11:40PM 45.2117 -95.7319 278° West 426 490 32,700 1,200 Climbing Minneapolis Center
11:41PM 45.2267 -95.8936 278° West 419 482 33,800 1,140 Climbing Minneapolis Center
11:42PM 45.2403 -96.0544 277° West 415 478 35,000 1,080 Climbing Minneapolis Center
11:43PM 45.2542 -96.2125 277° West 408 470 36,000 480 Climbing Minneapolis Center
11:44PM 45.2669 -96.3728 277° West 410 472 36,000  Level Minneapolis Center
11:45PM 45.2817 -96.5392 277° West 423 487 36,000  Level Minneapolis Center
11:46PM 45.2958 -96.7097 277° West 436 502 36,000  Level Minneapolis Center
11:47PM 45.3097 -96.8808 277° West 438 504 36,000  Level Minneapolis Center
11:48PM 45.3228 -97.0483 276° West 433 498 36,000  Level Minneapolis Center
11:49PM 45.3369 -97.2172 277° West 432 497 36,000  Level Minneapolis Center
11:50PM 45.3486 -97.3856 276° West 431 496 36,000  Level Minneapolis Center
11:51PM 45.3600 -97.5517 276° West 427 491 36,000  Level Minneapolis Center
11:52PM 45.3761 -97.7522 277° West 427 491 36,000  Level Minneapolis Center
11:53PM 45.3883 -97.9192 276° West 427 491 36,000  Level Minneapolis Center
11:54PM 45.4003 -98.0747 276° West 425 489 36,000  Level Minneapolis Center
11:55PM 45.4106 -98.2406 275° West 423 487 36,000  Level Minneapolis Center
11:56PM 45.4253 -98.4064 277° West 424 488 36,000  Level Minneapolis Center
11:57PM 45.4519 -98.5717 283° West 428 493 36,000  Level Minneapolis Center
11:58PM 45.4792 -98.7375 283° West 430 495 36,000  Level Minneapolis Center
11:59PM 45.5056 -98.9036 283° West 432 497 36,000  Level Minneapolis Center
12:00AM 45.5322 -99.0697 283° West 432 497 36,000  Level Minneapolis Center
12:01AM 45.5581 -99.2389 282° West 435 501 36,000  Level Minneapolis Center
12:02AM 45.5889 -99.4403 282° West 436 502 36,000  Level Minneapolis Center
12:03AM 45.6142 -99.6075 282° West 435 501 36,000  Level Minneapolis Center
12:04AM 45.6392 -99.7717 282° West 431 496 36,000  Level Minneapolis Center
12:05AM 45.6622 -99.9347 281° West 425 489 36,000  Level Minneapolis Center
12:06AM 45.6853 -100.0942 282° West 417 480 36,000  Level Minneapolis Center
12:08AM 45.7089 -100.2536 282° West 414 476 36,000  Level Minneapolis Center
12:09AM 45.7322 -100.4167 282° West 419 482 36,000  Level Minneapolis Center
12:10AM 45.7547 -100.5797 281° West 420 483 36,000  Level Minneapolis Center
12:11AM 45.7781 -100.7442 282° West 422 486 36,000  Level Minneapolis Center
12:12AM 45.8014 -100.9094 282° West 424 488 36,000  Level Minneapolis Center
12:13AM 45.8236 -101.0744 281° West 424 488 36,000  Level Minneapolis Center
12:14AM 45.8478 -101.2417 282° West 427 491 36,000  Level Minneapolis Center
12:15AM 45.8692 -101.4069 281° West 425 489 36,000  Level Minneapolis Center
12:16AM 45.8914 -101.5706 281° West 421 484 36,000  Level Minneapolis Center
12:17AM 45.9125 -101.7369 280° West 422 486 36,000  Level Minneapolis Center
12:18AM 45.9397 -101.9333 281° West 421 484 36,000  Level Minneapolis Center
12:19AM 45.9614 -102.0989 281° West 422 486 36,000  Level Minneapolis Center
12:20AM 45.9825 -102.2631 281° West 420 483 36,000  Level Minneapolis Center
12:21AM 46.0028 -102.4281 280° West 421 484 36,000  Level Minneapolis Center
12:22AM 46.0231 -102.5928 280° West 420 483 36,000  Level Minneapolis Center
12:23AM 46.0436 -102.7594 280° West 419 482 36,000  Level Minneapolis Center
12:24AM 46.0639 -102.9244 280° West 419 482 36,000  Level Minneapolis Center
12:25AM 46.0833 -103.0894 280° West 418 481 36,000  Level Minneapolis Center
12:26AM 46.1025 -103.2544 280° West 419 482 36,000  Level Minneapolis Center
12:27AM 46.1214 -103.4197 279° West 418 481 36,000  Level Minneapolis Center
12:28AM 46.1400 -103.5836 279° West 416 479 36,000  Level Minneapolis Center
12:29AM 46.1586 -103.7483 279° West 417 480 36,000  Level Minneapolis Center
12:30AM 46.1769 -103.9114 279° West 415 478 36,000  Level Minneapolis Center
12:31AM 46.1964 -104.1061 278° West 414 476 36,000  Level Salt Lake Center
12:32AM 46.2131 -104.2692 278° West 412 474 36,000  Level Salt Lake Center
12:33AM 46.2308 -104.4356 279° West 416 479 36,000  Level Salt Lake Center
12:34AM 46.2464 -104.5839 279° West 415 478 36,000  Level Salt Lake Center
12:35AM 46.2633 -104.7492 278° West 416 479 36,000  Level Salt Lake Center
12:36AM 46.2828 -104.9444 278° West 413 475 36,000  Level Salt Lake Center
12:37AM 46.2994 -105.1086 278° West 414 476 36,000  Level Salt Lake Center
12:38AM 46.3161 -105.2722 278° West 413 475 36,000  Level Salt Lake Center
12:39AM 46.3308 -105.4347 278° West 412 474 36,000  Level Salt Lake Center
12:40AM 46.3481 -105.5969 279° West 411 473 36,000  Level Salt Lake Center
12:41AM 46.3639 -105.7603 278° West 411 473 36,000  Level Salt Lake Center
12:42AM 46.3803 -105.9222 278° West 410 472 36,000  Level Salt Lake Center
12:43AM 46.3928 -106.0833 276° West 407 468 36,000  Level Salt Lake Center
12:44AM 46.4036 -106.2453 276° West 407 468 36,000  Level Salt Lake Center
12:45AM 46.4128 -106.4028 275° West 400 460 36,000  Level Salt Lake Center
12:46AM 46.4239 -106.5936 275° West 398 458 36,000  Level Salt Lake Center
12:47AM 46.4322 -106.7511 274° West 396 456 36,000  Level Salt Lake Center
12:48AM 46.4417 -106.9086 275° West 394 453 36,000  Level Salt Lake Center
12:49AM 46.4503 -107.0669 275° West 396 456 36,000  Level Salt Lake Center
12:50AM 46.4575 -107.2244 274° West 395 455 36,000  Level Salt Lake Center
12:51AM 46.4669 -107.3881 275° West 403 464 36,000  Level Salt Lake Center
12:52AM 46.4742 -107.5481 274° West 401 461 36,000  Level Salt Lake Center
12:53AM 46.4817 -107.7089 274° West 401 461 36,000  Level Salt Lake Center
12:54AM 46.4897 -107.8711 274° West 405 466 36,000  Level Salt Lake Center
12:55AM 46.4975 -108.0319 274° West 403 464 36,000  Level Salt Lake Center
12:56AM 46.5042 -108.1931 273° West 402 463 36,000  Level Salt Lake Center
12:57AM 46.5131 -108.3894 274° West 407 468 36,000  Level Salt Lake Center
12:58AM 46.5203 -108.5522 274° West 407 468 36,000  Level Salt Lake Center
12:59AM 46.5269 -108.7144 273° West 405 466 36,000  Level Salt Lake Center
01:00AM 46.5331 -108.8742 273° West 400 460 36,000  Level Salt Lake Center
01:01AM 46.5386 -109.0319 273° West 395 455 36,000  Level Salt Lake Center
01:02AM 46.5439 -109.1892 273° West 393 452 36,000  Level Salt Lake Center
01:03AM 46.5497 -109.3456 273° West 391 450 36,000  Level Salt Lake Center
01:04AM 46.5539 -109.5058 272° West 398 458 36,000  Level Salt Lake Center
01:05AM 46.5592 -109.6686 273° West 403 464 36,000  Level Salt Lake Center
01:06AM 46.5644 -109.8303 273° West 402 463 36,000 300 Level Salt Lake Center
01:08AM 46.5686 -109.9928 272° West 404 465 36,700 960 Climbing Salt Lake Center
01:09AM 46.5736 -110.1783 272° West 388 447 38,000 600 Climbing Salt Lake Center
01:10AM 46.5781 -110.3317 272° West 383 441 38,000  Level Salt Lake Center
01:11AM 46.5819 -110.4897 272° West 390 449 38,000  Level Salt Lake Center
01:12AM 46.5839 -110.6250 271° West 392 451 38,000  Level Salt Lake Center
01:13AM 46.5878 -110.7800 272° West 385 443 38,000  Level Salt Lake Center
01:14AM 46.5917 -110.9328 272° West 380 437 38,000  Level Salt Lake Center
01:15AM 46.5947 -111.1131 271° West 374 430 38,000  Level Salt Lake Center
01:16AM 46.5967 -111.2664 271° West 377 434 38,000  Level Salt Lake Center
01:17AM 46.6003 -111.4264 272° West 390 449 38,000  Level Salt Lake Center
01:18AM 46.6022 -111.5875 271° West 397 457 38,000  Level Salt Lake Center
01:19AM 46.6050 -111.7472 272° West 396 456 38,000  Level Salt Lake Center
01:20AM 46.6069 -111.9047 271° West 392 451 38,000  Level Salt Lake Center
01:21AM 46.6061 -112.0597 270° West 386 444 38,000  Level Salt Lake Center
01:22AM 46.6022 -112.2156 268° West 386 444 38,000  Level Salt Lake Center
01:23AM 46.5994 -112.3719 269° West 386 444 38,000  Level Salt Lake Center
01:24AM 46.5958 -112.5264 268° West 385 443 38,000  Level Salt Lake Center
01:25AM 46.5925 -112.6825 268° West 387 445 38,000  Level Salt Lake Center
01:26AM 46.5889 -112.8392 268° West 389 448 38,000  Level Salt Lake Center
01:27AM 46.5853 -112.9989 268° West 395 455 38,000  Level Salt Lake Center
01:28AM 46.5806 -113.1575 268° West 395 455 38,000  Level Salt Lake Center
01:29AM 46.5758 -113.3333 268° West 394 453 38,000  Level Salt Lake Center
01:30AM 46.5717 -113.4928 268° West 395 455 38,000  Level Salt Lake Center
01:31AM 46.5667 -113.6500 267° West 391 450 38,000  Level Salt Lake Center
01:32AM 46.5608 -113.8103 267° West 393 452 38,000  Level Salt Lake Center
01:33AM 46.5556 -113.9686 267° West 394 453 38,000  Level Salt Lake Center
01:34AM 46.5497 -114.1283 267° West 395 455 38,000  Level Salt Lake Center
01:35AM 46.5439 -114.2886 267° West 397 457 38,000  Level Salt Lake Center
01:36AM 46.5386 -114.4478 267° West 396 456 38,000  Level Salt Lake Center
01:37AM 46.5317 -114.6069 266° West 395 455 38,000  Level Salt Lake Center
01:38AM 46.5258 -114.7672 267° West 398 458 38,000  Level Salt Lake Center
01:39AM 46.5189 -114.9278 266° West 399 459 38,000  Level Salt Lake Center
01:40AM 46.5119 -115.0881 266° West 399 459 38,000  Level Salt Lake Center
01:41AM 46.5044 -115.2478 266° West 399 459 38,000 -180 Level Salt Lake Center
01:42AM 46.4961 -115.4108 266° West 401 461 37,700 -660 Descending Salt Lake Center
01:43AM 46.4872 -115.5739 266° West 404 465 36,700 -1,200 Descending Salt Lake Center
01:44AM 46.4792 -115.7411 266° West 408 470 35,400 -1,320 Descending Salt Lake Center
01:45AM 46.4725 -115.9033 267° West 409 471 34,100 -1,380 Descending Salt Lake Center
01:46AM 46.4633 -116.0778 266° West 419 482 32,600 -1,740 Descending Salt Lake Center
01:47AM 46.4531 -116.2583 265° West 432 497 30,700 -1,800 Descending Salt Lake Center
01:48AM 46.4442 -116.4342 266° West 438 504 29,000 -1,860 Descending Salt Lake Center
01:49AM 46.4319 -116.6367 265° West 433 498 27,000 -1,860 Descending Salt Lake Center
01:50AM 46.4236 -116.7986 266° West 423 487 25,300 -1,740 Descending Salt Lake Center
01:51AM 46.4156 -116.9500 266° West 398 458 23,600 -1,740 Descending Salt Lake Center
01:52AM 46.4056 -117.1031 265° West 386 444 21,800 -1,740 Descending Salt Lake Center
01:53AM 46.3961 -117.2539 265° West 379 436 20,100 -1,860 Descending Salt Lake Center
01:54AM 46.3836 -117.4469 265° West 349 402 17,400 -1,980 Descending Seattle Center
01:55AM 46.3753 -117.5781 265° West 334 384 15,400 -2,040 Descending Seattle Center
01:56AM 46.3675 -117.7047 265° West 321 369 13,400 -1,860 Descending Seattle Center
01:57AM 46.3586 -117.8233 264° West 298 343 11,700 -1,680 Descending Seattle Center
01:58AM 46.3497 -117.9367 264° West 282 325 10,100 -1,740 Descending Seattle Center
01:59AM 46.3414 -118.0475 264° West 280 322 8,200 -1,560 Descending Seattle Center
02:00AM 46.3344 -118.1586 265° West 279 321 7,000 -840 Descending Seattle Center
02:02AM 46.3114 -118.3181 266° West  Level FlightAware Approximate
02:04AM 46.3031 -118.5892 270° West 263 303 4,000  Level Seattle Center
02:05AM 46.2975 -118.6772 265° West 228 262 4,000  Level Seattle Center
02:07AM 46.2953 -118.7608 268° West 211 243 4,000 -300 Level Seattle Center
02:08AM 46.3056 -118.8433 280° West 207 238 3,400 -600 Descending Seattle Center
02:09AM 46.2500 -119.1167 270° West  Level FlightAware Approximate
02:09AM 46.3194 -118.9067 288° West 177 204 2,800  Level Seattle Center
02:10AM 46.2647 -119.1190 270° West  Level Estimated
02:10AM 46.3306 -118.9714 284° West 167 192 2,400  Level Seattle Center
02:11AM 46.3219 -119.0303 258° West 147 169 1,900 -660 Descending Seattle Center
02:12AM 46.2942 -119.0772 229° Southwest 135 155 1,100 -780 Descending Seattle Center
02:13AM 46.2675 -119.1161 225° Southwest 135 155 400 -720 Descending Seattle Center